createdAt,value
2019-05-14T00:00:14.008Z,5.90
2019-05-14T00:02:43.527Z,6.00
2019-05-14T00:05:13.219Z,6.10
2019-05-14T00:07:42.694Z,6.10
2019-05-14T00:10:12.382Z,6.20
2019-05-14T00:12:41.989Z,6.20
2019-05-14T00:15:12.236Z,6.20
2019-05-14T00:17:41.882Z,6.20
2019-05-14T00:20:13.234Z,6.20
2019-05-14T00:22:42.894Z,6.10
2019-05-14T00:25:12.419Z,6.10
2019-05-14T00:27:41.867Z,6.00
2019-05-14T00:30:11.968Z,5.90
2019-05-14T00:32:41.639Z,5.90
2019-05-14T00:35:11.851Z,5.80
2019-05-14T00:37:41.598Z,5.80
2019-05-14T00:40:11.830Z,5.70
2019-05-14T00:42:41.886Z,5.70
2019-05-14T00:45:11.885Z,5.60
2019-05-14T00:47:42.005Z,5.60
2019-05-14T00:50:12.322Z,5.70
2019-05-14T00:52:44.297Z,5.70
2019-05-14T00:55:13.991Z,5.80
2019-05-14T00:57:43.446Z,5.90
2019-05-14T01:00:13.071Z,5.90
2019-05-14T01:02:42.523Z,5.90
2019-05-14T01:05:12.555Z,5.80
2019-05-14T01:07:42.566Z,5.90
2019-05-14T01:10:13.269Z,5.90
2019-05-14T01:12:42.719Z,5.90
2019-05-14T01:15:14.231Z,5.90
2019-05-14T01:17:43.881Z,5.90
2019-05-14T01:20:13.776Z,5.90
2019-05-14T01:22:43.238Z,5.90
2019-05-14T01:25:13.226Z,5.80
2019-05-14T01:27:42.750Z,5.70
2019-05-14T01:30:12.662Z,5.60
2019-05-14T01:32:43.186Z,5.60
2019-05-14T01:35:13.009Z,5.50
2019-05-14T01:37:42.459Z,5.40
2019-05-14T01:40:12.662Z,5.50
2019-05-14T01:42:42.118Z,5.50
2019-05-14T01:45:23.940Z,5.50
2019-05-14T01:47:42.752Z,5.50
2019-05-14T01:50:12.861Z,5.50
2019-05-14T01:52:42.317Z,5.50
2019-05-14T01:55:12.249Z,5.30
2019-05-14T01:57:42.533Z,5.30
2019-05-14T02:00:13.439Z,5.40
2019-05-14T02:02:42.959Z,5.30
2019-05-14T02:05:12.767Z,5.30
2019-05-14T02:07:42.262Z,5.20
2019-05-14T02:10:12.031Z,5.20
2019-05-14T02:12:42.450Z,5.20
2019-05-14T02:15:12.417Z,5.10
2019-05-14T02:17:41.867Z,5.00
2019-05-14T02:20:12.572Z,4.90
2019-05-14T02:22:42.349Z,4.90
2019-05-14T02:25:13.507Z,4.80
2019-05-14T02:27:42.954Z,4.80
2019-05-14T02:30:12.847Z,4.70
2019-05-14T02:32:42.305Z,4.60
2019-05-14T02:35:12.028Z,4.50
2019-05-14T02:37:41.551Z,4.50
2019-05-14T02:40:11.849Z,4.40
2019-05-14T02:42:41.332Z,4.40
2019-05-14T02:45:11.114Z,4.20
2019-05-14T02:47:40.562Z,4.10
2019-05-14T02:50:10.561Z,4.20
2019-05-14T02:52:40.544Z,4.20
2019-05-14T02:55:10.880Z,4.20
2019-05-14T02:57:40.412Z,4.00
2019-05-14T03:00:10.812Z,4.10
2019-05-14T03:02:40.549Z,4.10
2019-05-14T03:05:10.373Z,4.10
2019-05-14T03:07:39.961Z,4.10
2019-05-14T03:10:10.235Z,4.10
2019-05-14T03:12:39.989Z,4.00
2019-05-14T03:15:10.586Z,3.90
2019-05-14T03:17:40.706Z,3.90
2019-05-14T03:20:10.495Z,3.90
2019-05-14T03:22:53.465Z,3.90
2019-05-14T03:25:11.285Z,3.80
2019-05-14T03:27:40.794Z,3.80
2019-05-14T03:30:12.995Z,3.70
2019-05-14T03:32:43.110Z,3.50
2019-05-14T03:35:14.244Z,3.60
2019-05-14T03:37:44.288Z,3.70
2019-05-14T03:40:14.078Z,3.80
2019-05-14T03:42:43.542Z,3.70
2019-05-14T03:45:13.228Z,3.70
2019-05-14T03:47:42.688Z,3.70
2019-05-14T03:50:12.308Z,3.70
2019-05-14T03:52:42.127Z,3.70
2019-05-14T03:55:11.926Z,3.60
2019-05-14T03:57:41.512Z,3.60
2019-05-14T04:00:11.424Z,3.70
2019-05-14T04:02:41.072Z,3.70
2019-05-14T04:05:10.540Z,3.70
2019-05-14T04:07:41.331Z,3.80
2019-05-14T04:10:11.229Z,3.80
2019-05-14T04:12:43.776Z,3.80
2019-05-14T04:15:13.579Z,3.80
2019-05-14T04:17:45.378Z,3.70
2019-05-14T04:20:14.950Z,3.80
2019-05-14T04:22:50.032Z,3.60
2019-05-14T04:25:19.559Z,3.70
2019-05-14T04:27:52.105Z,3.90
2019-05-14T04:30:24.277Z,4.00
2019-05-14T04:32:55.795Z,4.10
2019-05-14T04:35:25.478Z,4.10
2019-05-14T04:37:54.947Z,4.20
2019-05-14T04:40:24.389Z,4.30
2019-05-14T04:42:53.927Z,4.30
2019-05-14T04:45:23.461Z,4.40
2019-05-14T04:47:52.941Z,4.50
2019-05-14T04:50:25.537Z,4.50
2019-05-14T04:52:53.501Z,4.50
2019-05-14T04:55:23.128Z,4.60
2019-05-14T04:57:52.593Z,4.60
2019-05-14T05:00:22.110Z,4.70
2019-05-14T05:02:51.561Z,4.80
2019-05-14T05:05:21.020Z,4.70
2019-05-14T05:07:50.651Z,4.80
2019-05-14T05:10:20.124Z,4.80
2019-05-14T05:12:49.593Z,4.80
2019-05-14T05:15:19.788Z,4.90
2019-05-14T05:17:52.821Z,5.00
2019-05-14T05:20:20.476Z,5.00
2019-05-14T05:22:49.936Z,5.10
2019-05-14T05:25:19.394Z,5.20
2019-05-14T05:27:48.899Z,5.30
2019-05-14T05:30:18.979Z,5.40
2019-05-14T05:32:49.422Z,5.50
2019-05-14T05:35:19.081Z,5.50
2019-05-14T05:37:49.171Z,5.70
2019-05-14T05:40:19.771Z,5.70
2019-05-14T05:42:50.304Z,5.80
2019-05-14T05:45:19.756Z,5.80
2019-05-14T05:47:57.910Z,6.00
2019-05-14T05:50:20.916Z,6.00
2019-05-14T05:52:53.605Z,6.10
2019-05-14T05:55:21.549Z,6.30
2019-05-14T05:57:51.045Z,6.40
2019-05-14T06:00:35.397Z,6.40
2019-05-14T06:03:10.218Z,6.40
2019-05-14T06:05:38.893Z,6.40
2019-05-14T06:08:08.724Z,6.60
2019-05-14T06:10:39.922Z,6.60
2019-05-14T06:13:09.450Z,6.60
2019-05-14T06:15:45.755Z,6.60
2019-05-14T06:18:17.870Z,6.70
2019-05-14T06:20:41.110Z,6.70
2019-05-14T06:23:10.571Z,6.70
2019-05-14T06:25:40.292Z,6.80
2019-05-14T06:28:09.759Z,6.80
2019-05-14T06:30:40.561Z,6.90
2019-05-14T06:33:10.020Z,7.00
2019-05-14T06:35:39.905Z,7.10
2019-05-14T06:38:09.437Z,7.10
2019-05-14T06:40:39.534Z,7.20
2019-05-14T06:43:09.438Z,7.20
2019-05-14T06:45:39.266Z,7.40
2019-05-14T06:48:08.934Z,7.50
2019-05-14T06:50:39.142Z,7.60
2019-05-14T06:53:08.914Z,7.70
2019-05-14T06:55:39.240Z,7.90
2019-05-14T06:58:09.999Z,8.00
2019-05-14T07:00:39.651Z,8.10
2019-05-14T07:03:09.158Z,8.20
2019-05-14T07:05:39.122Z,8.10
2019-05-14T07:08:09.064Z,8.20
2019-05-14T07:10:39.491Z,8.30
2019-05-14T07:13:09.063Z,8.20
2019-05-14T07:15:38.797Z,8.30
2019-05-14T07:18:08.749Z,8.40
2019-05-14T07:20:39.254Z,8.50
2019-05-14T07:23:09.564Z,8.50
2019-05-14T07:25:39.462Z,8.50
2019-05-14T07:28:09.021Z,8.50
2019-05-14T07:30:39.577Z,8.60
2019-05-14T07:33:09.558Z,8.80
2019-05-14T07:35:39.130Z,8.90
2019-05-14T07:38:09.068Z,8.80
2019-05-14T07:40:39.057Z,8.80
2019-05-14T07:43:09.218Z,8.70
2019-05-14T07:45:38.801Z,8.80
2019-05-14T07:48:09.125Z,8.80
2019-05-14T07:50:39.832Z,8.80
2019-05-14T07:53:09.553Z,8.80
2019-05-14T07:55:39.130Z,9.10
2019-05-14T07:58:08.582Z,9.20
2019-05-14T08:00:40.293Z,9.20
2019-05-14T08:03:09.216Z,9.20
2019-05-14T08:05:39.112Z,9.30
2019-05-14T08:08:08.723Z,9.40
2019-05-14T08:10:39.237Z,9.30
2019-05-14T08:13:09.849Z,9.10
2019-05-14T08:15:39.305Z,9.10
2019-05-14T08:18:08.774Z,8.90
2019-05-14T08:20:38.232Z,8.70
2019-05-14T08:23:09.025Z,8.60
2019-05-14T08:25:39.615Z,8.80
2019-05-14T08:28:09.062Z,9.10
2019-05-14T08:30:39.068Z,9.30
2019-05-14T08:33:09.539Z,9.30
2019-05-14T08:35:39.507Z,9.50
2019-05-14T08:38:12.060Z,9.40
2019-05-14T08:40:40.140Z,9.50
2019-05-14T08:43:09.586Z,9.60
2019-05-14T08:45:39.116Z,9.60
2019-05-14T08:48:09.327Z,9.70
2019-05-14T08:50:38.976Z,9.60
2019-05-14T08:53:09.106Z,9.70
2019-05-14T08:55:39.160Z,9.80
2019-05-14T08:58:13.515Z,9.70
2019-05-14T09:00:39.704Z,9.60
2019-05-14T09:03:09.158Z,9.70
2019-05-14T09:05:38.805Z,9.90
2019-05-14T09:08:08.803Z,10.20
2019-05-14T09:10:40.234Z,10.20
2019-05-14T09:13:09.945Z,10.10
2019-05-14T09:15:39.460Z,10.00
2019-05-14T09:18:11.639Z,10.00
2019-05-14T09:20:40.101Z,10.00
2019-05-14T09:23:09.548Z,10.30
2019-05-14T09:25:47.723Z,10.50
2019-05-14T09:28:10.101Z,10.70
2019-05-14T09:30:39.562Z,10.80
2019-05-14T09:33:09.104Z,10.40
2019-05-14T09:35:38.810Z,10.30
2019-05-14T09:38:08.850Z,10.20
2019-05-14T09:40:39.712Z,10.20
2019-05-14T09:43:09.385Z,10.20
2019-05-14T09:45:39.693Z,10.20
2019-05-14T09:48:09.162Z,10.20
2019-05-14T09:50:38.638Z,10.20
2019-05-14T09:53:09.793Z,10.20
2019-05-14T09:55:39.158Z,10.20
2019-05-14T09:58:08.627Z,10.20
2019-05-14T10:00:39.213Z,9.90
2019-05-14T10:03:10.497Z,9.70
2019-05-14T10:05:39.944Z,9.90
2019-05-14T10:08:09.463Z,9.90
2019-05-14T10:10:39.882Z,10.00
2019-05-14T10:13:09.920Z,10.50
2019-05-14T10:15:39.572Z,10.70
2019-05-14T10:18:11.597Z,11.00
2019-05-14T10:20:45.499Z,11.00
2019-05-14T10:23:11.389Z,10.50
2019-05-14T10:25:42.513Z,10.10
2019-05-14T10:28:13.052Z,9.70
2019-05-14T10:30:42.744Z,9.40
2019-05-14T10:33:14.874Z,9.50
2019-05-14T10:35:43.393Z,9.90
2019-05-14T10:38:12.916Z,10.50
2019-05-14T10:40:42.381Z,10.90
2019-05-14T10:43:11.846Z,11.20
2019-05-14T10:45:41.298Z,11.30
2019-05-14T10:48:10.765Z,11.70
2019-05-14T10:50:55.681Z,11.60
2019-05-14T10:53:11.303Z,12.10
2019-05-14T10:55:40.758Z,12.20
2019-05-14T10:58:10.214Z,11.90
2019-05-14T11:00:41.897Z,10.60
2019-05-14T11:03:10.949Z,9.90
2019-05-14T11:05:41.515Z,9.40
2019-05-14T11:08:12.108Z,9.70
2019-05-14T11:10:42.522Z,10.00
2019-05-14T11:13:12.251Z,10.00
2019-05-14T11:15:41.714Z,10.00
2019-05-14T11:18:11.164Z,9.50
2019-05-14T11:20:42.147Z,9.50
2019-05-14T11:23:11.724Z,9.80
2019-05-14T11:25:41.245Z,10.00
2019-05-14T11:28:10.703Z,10.40
2019-05-14T11:30:40.172Z,10.60
2019-05-14T11:33:10.677Z,10.90
2019-05-14T11:35:40.142Z,11.20
2019-05-14T11:38:27.911Z,11.10
2019-05-14T11:40:40.800Z,11.10
2019-05-14T11:43:10.260Z,11.40
2019-05-14T11:45:39.714Z,12.10
2019-05-14T11:48:09.222Z,11.90
2019-05-14T11:50:38.700Z,11.80
2019-05-14T11:53:08.476Z,11.70
2019-05-14T11:55:38.807Z,11.50
2019-05-14T11:58:08.853Z,11.30
2019-05-14T12:00:38.886Z,11.10
2019-05-14T12:03:09.188Z,11.00
2019-05-14T12:05:38.985Z,10.80
2019-05-14T12:08:08.738Z,10.90
2019-05-14T12:10:38.685Z,10.80
2019-05-14T12:13:08.610Z,10.80
2019-05-14T12:15:38.866Z,10.60
2019-05-14T12:18:10.304Z,10.30
2019-05-14T12:20:39.790Z,10.20
2019-05-14T12:23:09.294Z,9.70
2019-05-14T12:25:38.762Z,9.50
2019-05-14T12:28:13.439Z,9.20
2019-05-14T12:30:39.697Z,9.30
2019-05-14T12:33:09.273Z,9.20
2019-05-14T12:35:40.241Z,9.60
2019-05-14T12:38:10.113Z,10.00
2019-05-14T12:40:40.260Z,10.10
2019-05-14T12:43:09.791Z,10.50
2019-05-14T12:45:39.545Z,10.40
2019-05-14T12:48:09.400Z,10.30
2019-05-14T12:50:39.441Z,10.20
2019-05-14T12:53:09.447Z,10.00
2019-05-14T12:55:40.157Z,9.80
2019-05-14T12:58:09.859Z,9.70
2019-05-14T13:00:39.612Z,9.80
2019-05-14T13:03:09.720Z,9.90
2019-05-14T13:05:39.209Z,9.90
2019-05-14T13:08:11.510Z,9.90
2019-05-14T13:10:39.966Z,10.10
2019-05-14T13:13:09.421Z,10.20
2019-05-14T13:15:39.486Z,10.40
2019-05-14T13:18:09.500Z,10.60
2019-05-14T13:20:39.091Z,10.60
2019-05-14T13:23:09.970Z,10.70
2019-05-14T13:25:40.718Z,10.80
2019-05-14T13:28:10.173Z,10.80
2019-05-14T13:30:39.643Z,10.70
2019-05-14T13:33:28.564Z,10.80
2019-05-14T13:35:59.395Z,10.80
2019-05-14T13:38:29.093Z,10.70
2019-05-14T13:40:59.477Z,10.60
2019-05-14T13:43:30.485Z,10.50
2019-05-14T13:46:01.354Z,10.50
2019-05-14T13:48:30.832Z,10.50
2019-05-14T13:51:00.300Z,10.50
2019-05-14T13:53:29.835Z,10.70
2019-05-14T13:55:59.318Z,10.80
2019-05-14T13:58:28.837Z,10.90
2019-05-14T14:00:59.598Z,11.00
2019-05-14T14:03:30.420Z,11.10
2019-05-14T14:06:01.111Z,11.20
2019-05-14T14:08:30.726Z,11.20
2019-05-14T14:11:02.756Z,11.10
2019-05-14T14:13:31.804Z,11.20
2019-05-14T14:16:01.307Z,11.20
2019-05-14T14:18:30.885Z,11.00
2019-05-14T14:21:00.338Z,11.10
2019-05-14T14:23:31.337Z,11.20
2019-05-14T14:26:00.961Z,11.30
2019-05-14T14:28:30.896Z,11.20
2019-05-14T14:31:00.371Z,11.50
2019-05-14T14:33:29.836Z,11.50
2019-05-14T14:35:59.295Z,11.50
2019-05-14T14:38:29.495Z,11.60
2019-05-14T14:40:59.059Z,11.60
2019-05-14T14:43:29.554Z,11.60
2019-05-14T14:45:59.516Z,11.40
2019-05-14T14:48:30.197Z,11.30
2019-05-14T14:51:00.146Z,11.30
2019-05-14T14:53:42.936Z,11.40
2019-05-14T14:56:00.742Z,11.50
2019-05-14T14:58:30.204Z,11.50
2019-05-14T15:00:59.681Z,11.50
2019-05-14T15:03:29.678Z,11.50
2019-05-14T15:06:00.337Z,11.50
2019-05-14T15:08:29.807Z,11.60
2019-05-14T15:10:59.497Z,11.60
2019-05-14T15:13:29.136Z,11.70
2019-05-14T15:16:01.087Z,11.70
2019-05-14T15:18:29.776Z,11.70
2019-05-14T15:20:59.312Z,11.80
2019-05-14T15:23:28.842Z,11.90
2019-05-14T15:25:58.936Z,12.00
2019-05-14T15:28:28.608Z,12.00
2019-05-14T15:30:59.538Z,12.10
2019-05-14T15:33:30.214Z,12.20
2019-05-14T15:35:59.669Z,12.20
2019-05-14T15:38:30.598Z,12.20
2019-05-14T15:41:00.308Z,12.10
2019-05-14T15:43:29.776Z,12.20
2019-05-14T15:46:00.308Z,12.30
2019-05-14T15:48:29.773Z,12.20
2019-05-14T15:51:00.016Z,12.20
2019-05-14T15:53:29.619Z,12.10
2019-05-14T15:55:59.080Z,12.10
2019-05-14T15:58:30.216Z,12.30
2019-05-14T16:01:01.317Z,12.30
2019-05-14T16:03:30.854Z,12.30
2019-05-14T16:06:00.312Z,12.80
2019-05-14T16:08:29.823Z,13.00
2019-05-14T16:11:00.383Z,12.90
2019-05-14T16:13:31.015Z,12.80
2019-05-14T16:16:00.444Z,12.70
2019-05-14T16:18:30.204Z,12.50
2019-05-14T16:20:59.669Z,12.40
2019-05-14T16:23:29.158Z,12.50
2019-05-14T16:25:59.037Z,13.30
2019-05-14T16:28:28.906Z,13.90
2019-05-14T16:30:59.212Z,14.20
2019-05-14T16:33:29.514Z,14.20
2019-05-14T16:35:59.321Z,13.70
2019-05-14T16:38:28.815Z,13.50
2019-05-14T16:40:59.656Z,13.10
2019-05-14T16:43:32.554Z,13.30
2019-05-14T16:46:01.748Z,13.30
2019-05-14T16:48:31.258Z,13.60
2019-05-14T16:51:00.721Z,13.60
2019-05-14T16:53:30.225Z,13.80
2019-05-14T16:55:59.685Z,13.80
2019-05-14T16:58:29.345Z,13.90
2019-05-14T17:00:58.931Z,13.90
2019-05-14T17:03:29.932Z,13.90
2019-05-14T17:06:01.192Z,13.80
2019-05-14T17:08:30.797Z,13.50
2019-05-14T17:11:00.382Z,13.10
2019-05-14T17:13:29.833Z,12.90
2019-05-14T17:15:59.296Z,12.60
2019-05-14T17:18:29.839Z,12.40
2019-05-14T17:20:59.543Z,12.30
2019-05-14T17:23:30.385Z,12.20
2019-05-14T17:25:59.849Z,12.10
2019-05-14T17:28:29.497Z,11.90
2019-05-14T17:30:59.076Z,11.80
2019-05-14T17:33:29.160Z,11.80
2019-05-14T17:35:58.870Z,11.70
2019-05-14T17:38:29.346Z,11.60
2019-05-14T17:40:59.651Z,11.50
2019-05-14T17:43:29.323Z,11.50
2019-05-14T17:45:58.929Z,11.40
2019-05-14T17:48:28.642Z,11.30
2019-05-14T17:50:58.941Z,11.30
2019-05-14T17:53:29.210Z,11.20
2019-05-14T17:55:59.346Z,11.20
2019-05-14T17:58:28.886Z,11.00
2019-05-14T18:00:59.286Z,11.00
2019-05-14T18:03:29.166Z,10.90
2019-05-14T18:05:58.791Z,10.80
2019-05-14T18:08:29.982Z,10.80
2019-05-14T18:11:01.769Z,10.70
2019-05-14T18:13:30.891Z,10.60
2019-05-14T18:16:00.342Z,10.50
2019-05-14T18:18:29.881Z,10.50
2019-05-14T18:20:59.344Z,10.40
2019-05-14T18:23:29.083Z,10.20
2019-05-14T18:26:07.963Z,10.30
2019-05-14T18:28:29.813Z,10.10
2019-05-14T18:30:59.266Z,10.10
2019-05-14T18:33:31.214Z,10.00
2019-05-14T18:35:59.883Z,9.90
2019-05-14T18:38:29.349Z,9.90
2019-05-14T18:40:58.903Z,9.80
2019-05-14T18:43:28.943Z,9.80
2019-05-14T18:45:58.823Z,9.80
2019-05-14T18:48:29.250Z,9.80
2019-05-14T18:50:59.289Z,9.60
2019-05-14T18:53:28.850Z,9.60
2019-05-14T18:55:59.670Z,9.50
2019-05-14T18:58:29.477Z,9.50
2019-05-14T19:00:59.064Z,9.30
2019-05-14T19:03:29.499Z,9.20
2019-05-14T19:05:58.980Z,9.10
2019-05-14T19:08:28.959Z,9.00
2019-05-14T19:10:59.428Z,8.80
2019-05-14T19:13:29.026Z,8.80
2019-05-14T19:15:59.149Z,8.80
2019-05-14T19:18:28.902Z,8.60
2019-05-14T19:20:59.366Z,8.60
2019-05-14T19:23:29.077Z,8.50
2019-05-14T19:25:59.143Z,8.60
2019-05-14T19:28:28.772Z,8.50
2019-05-14T19:30:59.570Z,8.40
2019-05-14T19:33:29.224Z,8.40
2019-05-14T19:35:58.774Z,8.40
2019-05-14T19:38:28.236Z,8.30
2019-05-14T19:40:57.745Z,8.30
2019-05-14T19:43:29.050Z,8.30
2019-05-14T19:45:59.004Z,8.20
2019-05-14T19:48:32.716Z,8.10
2019-05-14T19:50:59.748Z,8.10
2019-05-14T19:53:29.208Z,8.10
2019-05-14T19:55:59.361Z,8.10
2019-05-14T19:58:29.253Z,8.10
2019-05-14T20:00:59.438Z,8.10
2019-05-14T20:03:29.964Z,8.00
2019-05-14T20:05:59.421Z,8.00
2019-05-14T20:08:29.568Z,7.90
2019-05-14T20:10:59.722Z,7.90
2019-05-14T20:13:29.175Z,7.80
2019-05-14T20:15:59.064Z,7.80
2019-05-14T20:18:29.818Z,7.70
2019-05-14T20:20:59.384Z,7.60
2019-05-14T20:23:29.232Z,7.50
2019-05-14T20:25:59.293Z,7.40
2019-05-14T20:28:28.752Z,7.40
2019-05-14T20:30:58.764Z,7.40
2019-05-14T20:33:28.262Z,7.30
2019-05-14T20:35:58.950Z,7.20
2019-05-14T20:38:28.544Z,7.20
2019-05-14T20:40:58.170Z,7.20
2019-05-14T20:43:29.091Z,7.20
2019-05-14T20:45:59.482Z,7.20
2019-05-14T20:48:29.532Z,7.30
2019-05-14T20:50:58.996Z,7.20
2019-05-14T20:53:29.092Z,7.20
2019-05-14T20:56:00.334Z,7.10
2019-05-14T20:58:29.800Z,7.10
2019-05-14T21:00:59.728Z,7.10
2019-05-14T21:03:29.256Z,7.00
2019-05-14T21:05:58.718Z,7.00
2019-05-14T21:08:28.363Z,7.00
2019-05-14T21:10:58.831Z,7.00
2019-05-14T21:13:28.353Z,6.90
2019-05-14T21:15:57.798Z,6.80
2019-05-14T21:18:34.673Z,6.80
2019-05-14T21:20:58.440Z,6.80
2019-05-14T21:23:29.879Z,6.70
2019-05-14T21:25:58.970Z,6.70
2019-05-14T21:28:30.094Z,6.70
2019-05-14T21:30:59.624Z,6.60
2019-05-14T21:33:30.361Z,6.60
2019-05-14T21:35:59.845Z,6.50
2019-05-14T21:38:29.310Z,6.40
2019-05-14T21:40:58.816Z,6.40
2019-05-14T21:43:29.089Z,6.40
2019-05-14T21:45:59.308Z,6.40
2019-05-14T21:48:28.936Z,6.20
2019-05-14T21:51:00.546Z,6.10
2019-05-14T21:53:29.519Z,6.00
2019-05-14T21:55:58.978Z,6.00
2019-05-14T21:58:29.262Z,5.90
2019-05-14T22:00:59.430Z,5.80
2019-05-14T22:03:30.255Z,5.70
2019-05-14T22:05:59.719Z,5.60
2019-05-14T22:08:30.350Z,5.60
2019-05-14T22:11:00.065Z,5.60
2019-05-14T22:13:29.530Z,5.50
2019-05-14T22:15:59.064Z,5.50
2019-05-14T22:18:29.471Z,5.40
2019-05-14T22:20:58.910Z,5.30
2019-05-14T22:23:29.190Z,5.40
2019-05-14T22:25:58.836Z,5.50
2019-05-14T22:28:28.802Z,5.60
2019-05-14T22:30:58.759Z,5.60
2019-05-14T22:33:28.527Z,5.70
2019-05-14T22:35:58.161Z,5.60
2019-05-14T22:38:29.338Z,5.60
2019-05-14T22:40:59.203Z,5.70
2019-05-14T22:43:28.950Z,5.70
2019-05-14T22:45:59.083Z,5.80
2019-05-14T22:48:28.768Z,5.70
2019-05-14T22:50:59.259Z,5.80
2019-05-14T22:53:30.364Z,5.80
2019-05-14T22:56:00.092Z,5.80
2019-05-14T22:58:29.546Z,5.80
2019-05-14T23:01:13.165Z,5.90
2019-05-14T23:03:30.331Z,5.90
2019-05-14T23:06:00.212Z,5.90
2019-05-14T23:08:29.731Z,6.00
2019-05-14T23:10:59.193Z,6.00
2019-05-14T23:13:28.649Z,6.00
2019-05-14T23:15:58.888Z,6.00
2019-05-14T23:18:28.794Z,6.10
2019-05-14T23:20:59.049Z,6.10
2019-05-14T23:23:28.833Z,6.10
2019-05-14T23:25:58.946Z,6.10
2019-05-14T23:28:41.754Z,6.20
2019-05-14T23:30:59.704Z,6.20
2019-05-14T23:33:29.082Z,6.20
2019-05-14T23:35:58.542Z,6.20
2019-05-14T23:38:29.046Z,6.20
2019-05-14T23:40:58.825Z,6.20
2019-05-14T23:43:28.875Z,6.20
2019-05-14T23:45:58.490Z,6.20
2019-05-14T23:48:27.948Z,6.20
2019-05-14T23:50:58.442Z,6.20
2019-05-14T23:53:29.149Z,6.10
2019-05-14T23:55:58.715Z,6.10
2019-05-14T23:58:28.925Z,6.10
